Airfield :
LOGIN :

Register | Disclaimer

   EN    FR    IT 

 










Legend :    VFR   Marginal VFR   IFR   Intensive IFR   Very Intensive IFR
Visi :
Ceiling :
>= 8 km
>= 3000ft
5 to 8 km
1000 to 3000 ft
1500m to 5 km
500 to 1000 ft
800 to 1500m
200 to 500 ft
< 800m
< 200 ft
Symbols :   Thunderstorms  Fog  Heavy snow  Heavy precipitations  Wind > 20 kt
SIGMETs :     Misc.  Thunderstorms  Icing  Turbulence  Mountain Waves  Volcanic Ashes






- Airport Elevation : 13 ft
- IATA code : OST


EBOS - Oostend bruges Int.

CURRENT METAR :
  • 090920Z 23009KT 6000 -SHRA FEW005 BKN014 05/04 Q1003 TEMPO SCT012 BKN020

EXPIRED METARs :
  • 090850Z 22007KT 9999 -SHRA SCT005 BKN021 05/04 Q1002 TEMPO BKN012
  • 090820Z 23007KT 9999 FEW011 SCT014 BKN018 04/03 Q1002 TEMPO BKN012
  • 090750Z 21007KT 190V260 9999 FEW015 BKN020 04/03 Q1002 TEMPO BKN012
  • 090720Z 21008KT 9000 SCT017 BKN024 04/03 Q1002 TEMPO BKN012
  • 090650Z 20007KT 9999 FEW015 BKN022 04/03 Q1002 TEMPO BKN012

TAF TAF EBOS
Valid from the 09 at 06:00 until the 10 at 12:00 UTC


090510Z 0906/1012 22010KT 9999 SCT012 BKN030
TEMPO 0906/0914 BKN012
BECMG 0921/0923 16013KT
PROB40
TEMPO 1000/1009 4000 RA SCT008 BKN012
BECMG 1003/1006 29015G27KT
BECMG 1006/1009 31025G37KT



MET'MAP, your aeronautical weather chart ! - Copyright ORBIFLY December 2007 - Disclaimer

ORBIFLY MET'MAP TEAM :

Programming & Development : Alexandra Zaïnal
Concept & original design : Baudouin d'Aumeries
Assistance for programming : Marc-Olivier Méhu
Technical & hardware support : Manuel Goepfert

Contact : metmap@orbifly.com




SOURCES & CREDITS :

   NOAA